Belle Plain, Colorado
Current Conditions -  °F | °C
As of 10:53 PM on Friday 28 Nov 2014 (Local Time) from KPUB Reporting Station
Clear Clear  
Wind Chill: 31°   Ceiling: Unl
Heat Index: 37°   Visibility: 10mi
Dew Point: 16°   Wind: 8mph
Humidity: 42%   Direction: 280°W
Pressure: 29.81"   Gusts: NA
Location:  38.2964°N, 104.538°W
Report Text: KPUB 290553Z AUTO 28007KT 10SM CLR 03/M09 A2981 RMK AO2 SLP075 T00281089 10206 20028 58006
Loading
Personal Weather Stations






























Interactive Weather Map New forecast layout! Learn more

10-Day Weather Forecast

Advertisements
Track Severe Weather on mobile